KRMG/RMG METAR and TAF weather

Enter ICAO airport designator
Station Type Date Time Source
KRMG METAR 2022/06/28 08:53 UTC NOAA

KRMG 280853Z AUTO 35004KT 10SM BKN065 OVC085 23/14 A3009 RMK AO2 SLP176 T02330139 55001


Station Type Date Time Source
KRMG Decoded METAR 2022/06/28 08:53 UTC NOAA

ROME R. B. RUSSELL AIRPORT, GA, United States (KRMG) 34-21N 085-10W 193M
Jun 28, 2022 - 04:53 AM EDT / 2022.06.28 0853 UTC
Wind: from the N (350 degrees) at 5 MPH (4 KT):0
Visibility: 10 mile(s):0
Sky conditions: overcast
Temperature: 73.9 F (23.3 C)
Dew Point: 57.0 F (13.9 C)
Relative Humidity: 55%
Pressure (altimeter): 30.09 in. Hg (1018 hPa)
Pressure tendency: 0.00 inches (0.1 hPa) lower than three hours ago
ob: KRMG 280853Z AUTO 35004KT 10SM BKN065 OVC085 23/14 A3009 RMK AO2 SLP176 T02330139 55001
cycle: 9

Station Type Date Time Source
KRMG TAF UTC NOAA

Error!

Example: see airport list